createdAt,value
2018-08-18T00:00:54.119Z,99.99
2018-08-18T00:01:54.034Z,99.99
2018-08-18T00:02:53.956Z,99.99
2018-08-18T00:03:53.848Z,99.99
2018-08-18T00:04:53.761Z,99.99
2018-08-18T00:05:53.669Z,99.99
2018-08-18T00:06:53.579Z,99.99
2018-08-18T00:07:53.507Z,99.99
2018-08-18T00:08:53.415Z,99.99
2018-08-18T00:09:53.312Z,99.99
2018-08-18T00:10:53.218Z,99.99
2018-08-18T00:11:53.132Z,99.99
2018-08-18T00:12:53.058Z,99.99
2018-08-18T00:13:52.951Z,99.99
2018-08-18T00:14:52.862Z,99.99
2018-08-18T00:15:52.770Z,99.99
2018-08-18T00:16:52.683Z,99.99
2018-08-18T00:17:52.608Z,99.99
2018-08-18T00:18:52.499Z,99.99
2018-08-18T00:19:52.413Z,99.99
2018-08-18T00:20:52.324Z,99.99
2018-08-18T00:21:52.229Z,99.99
2018-08-18T00:22:52.159Z,99.99
2018-08-18T00:23:52.055Z,99.99
2018-08-18T00:24:51.961Z,99.99
2018-08-18T00:25:51.876Z,99.99
2018-08-18T00:26:51.782Z,99.99
2018-08-18T00:27:51.711Z,99.99
2018-08-18T00:28:51.608Z,99.99
2018-08-18T00:29:51.516Z,99.99
2018-08-18T00:30:51.428Z,99.99
2018-08-18T00:31:51.338Z,99.99
2018-08-18T00:32:51.247Z,99.99
2018-08-18T00:33:51.176Z,99.99
2018-08-18T00:34:51.068Z,99.99
2018-08-18T00:35:50.976Z,99.99
2018-08-18T00:36:50.891Z,99.99
2018-08-18T00:37:50.800Z,99.99
2018-08-18T00:38:50.724Z,99.99
2018-08-18T00:39:50.621Z,99.99
2018-08-18T00:40:50.529Z,99.99
2018-08-18T00:41:50.440Z,99.99
2018-08-18T00:42:50.353Z,99.99
2018-08-18T00:43:50.276Z,99.99
2018-08-18T00:44:50.171Z,99.99
2018-08-18T00:45:50.083Z,99.99
2018-08-18T00:46:49.991Z,99.99
2018-08-18T00:47:49.907Z,99.99
2018-08-18T00:48:49.832Z,99.99
2018-08-18T00:49:49.724Z,99.99
2018-08-18T00:50:49.633Z,99.99
2018-08-18T00:51:49.542Z,99.99
2018-08-18T00:52:49.454Z,99.99
2018-08-18T00:53:49.385Z,99.99
2018-08-18T00:54:49.275Z,99.99
2018-08-18T00:55:49.187Z,99.99
2018-08-18T00:56:49.101Z,99.99
2018-08-18T00:57:49.004Z,99.99
2018-08-18T00:58:48.932Z,99.99
2018-08-18T00:59:48.828Z,99.99
2018-08-18T01:00:48.736Z,99.99
2018-08-18T01:01:48.689Z,99.99
2018-08-18T01:02:48.560Z,99.99
2018-08-18T01:03:48.487Z,99.99
2018-08-18T01:04:48.380Z,99.99
2018-08-18T01:05:48.289Z,99.99
2018-08-18T01:06:48.302Z,99.99
2018-08-18T01:07:48.108Z,99.99
2018-08-18T01:08:48.036Z,99.99
2018-08-18T01:09:47.929Z,99.99
2018-08-18T01:10:47.897Z,99.99
2018-08-18T01:11:47.851Z,99.99
2018-08-18T01:12:47.780Z,99.99
2018-08-18T01:13:47.767Z,99.99
2018-08-18T01:14:47.505Z,99.99
2018-08-18T01:15:47.402Z,99.99
2018-08-18T01:16:47.302Z,99.99
2018-08-18T01:17:47.214Z,99.99
2018-08-18T01:18:47.141Z,99.99
2018-08-18T01:19:47.038Z,99.99
2018-08-18T01:20:47.047Z,99.99
2018-08-18T01:21:46.858Z,99.99
2018-08-18T01:22:46.768Z,99.99
2018-08-18T01:23:46.695Z,99.99
2018-08-18T01:24:46.588Z,99.99
2018-08-18T01:25:46.500Z,99.99
2018-08-18T01:26:46.409Z,99.99
2018-08-18T01:27:46.419Z,99.99
2018-08-18T01:28:46.246Z,99.99
2018-08-18T01:29:46.145Z,99.99
2018-08-18T01:30:46.049Z,99.99
2018-08-18T01:31:45.962Z,99.99
2018-08-18T01:32:45.871Z,99.99
2018-08-18T01:33:45.797Z,99.99
2018-08-18T01:34:45.789Z,99.99
2018-08-18T01:35:45.605Z,99.99
2018-08-18T01:36:45.529Z,99.99
2018-08-18T01:37:45.424Z,99.99
2018-08-18T01:38:45.349Z,99.99
2018-08-18T01:39:45.242Z,99.99
2018-08-18T01:40:45.157Z,99.99
2018-08-18T01:41:45.069Z,99.99
2018-08-18T01:42:44.977Z,99.99
2018-08-18T01:43:44.964Z,99.99
2018-08-18T01:44:44.797Z,99.99
2018-08-18T01:45:44.710Z,99.99
2018-08-18T01:46:44.619Z,99.99
2018-08-18T01:47:44.537Z,99.99
2018-08-18T01:48:44.454Z,99.99
2018-08-18T01:49:44.350Z,99.99
2018-08-18T01:50:44.262Z,99.99
2018-08-18T01:51:44.176Z,99.99
2018-08-18T01:52:44.083Z,99.99
2018-08-18T01:53:44.009Z,99.99
2018-08-18T01:54:43.902Z,99.99
2018-08-18T01:55:43.818Z,99.99
2018-08-18T01:56:43.725Z,99.99
2018-08-18T01:57:43.639Z,99.99
2018-08-18T01:58:43.561Z,99.99
2018-08-18T01:59:43.456Z,99.99
2018-08-18T02:00:43.367Z,99.99
2018-08-18T02:01:43.279Z,99.99
2018-08-18T02:02:43.190Z,99.99
2018-08-18T02:03:43.118Z,99.99
2018-08-18T02:04:43.011Z,99.99
2018-08-18T02:05:42.922Z,99.99
2018-08-18T02:06:42.831Z,99.99
2018-08-18T02:07:42.740Z,99.99
2018-08-18T02:08:42.656Z,99.99
2018-08-18T02:09:42.580Z,99.99
2018-08-18T02:10:42.477Z,99.99
2018-08-18T02:11:42.381Z,99.99
2018-08-18T02:12:42.300Z,99.99
2018-08-18T02:13:42.223Z,99.99
2018-08-18T02:14:42.116Z,99.99
2018-08-18T02:15:42.026Z,99.99
2018-08-18T02:16:41.943Z,99.99
2018-08-18T02:17:41.957Z,99.99
2018-08-18T02:18:41.758Z,99.99
2018-08-18T02:19:41.683Z,99.99
2018-08-18T02:20:41.578Z,99.99
2018-08-18T02:21:41.490Z,99.99
2018-08-18T02:22:41.399Z,99.99
2018-08-18T02:23:41.313Z,99.99
2018-08-18T02:24:41.342Z,99.99
2018-08-18T02:25:41.133Z,99.99
2018-08-18T02:26:41.045Z,99.99
2018-08-18T02:27:40.962Z,99.99
2018-08-18T02:28:40.868Z,99.99
2018-08-18T02:29:40.794Z,99.99
2018-08-18T02:30:40.685Z,99.99
2018-08-18T02:31:40.702Z,99.99
2018-08-18T02:32:40.508Z,99.99
2018-08-18T02:33:40.419Z,99.99
2018-08-18T02:34:40.342Z,99.99
2018-08-18T02:35:40.240Z,99.99
2018-08-18T02:36:40.151Z,99.99
2018-08-18T02:37:40.061Z,99.99
2018-08-18T02:38:40.074Z,99.99
2018-08-18T02:39:39.902Z,99.99
2018-08-18T02:40:39.791Z,99.99
2018-08-18T02:41:39.705Z,99.99
2018-08-18T02:42:39.614Z,99.99
2018-08-18T02:43:39.523Z,99.99
2018-08-18T02:44:39.454Z,99.99
2018-08-18T02:45:39.444Z,99.99
2018-08-18T02:46:39.256Z,99.99
2018-08-18T02:47:39.164Z,99.99
2018-08-18T02:48:39.077Z,99.99
2018-08-18T02:49:39.007Z,99.99
2018-08-18T02:50:38.900Z,99.99
2018-08-18T02:51:38.808Z,99.99
2018-08-18T02:52:38.722Z,99.99
2018-08-18T02:53:38.630Z,99.99
2018-08-18T02:54:38.555Z,99.99
2018-08-18T02:55:38.453Z,99.99
2018-08-18T02:56:38.361Z,99.99
2018-08-18T02:57:38.272Z,99.99
2018-08-18T02:58:38.184Z,99.99
2018-08-18T02:59:38.112Z,99.99
2018-08-18T03:00:38.004Z,99.99
2018-08-18T03:01:37.915Z,99.99
2018-08-18T03:02:37.823Z,99.99
2018-08-18T03:03:37.735Z,99.99
2018-08-18T03:04:37.664Z,99.99
2018-08-18T03:05:37.555Z,99.99
2018-08-18T03:06:37.467Z,99.99
2018-08-18T03:07:37.379Z,99.58
2018-08-18T03:08:37.287Z,98.14
2018-08-18T03:09:37.215Z,97.56
2018-08-18T03:10:37.107Z,96.99
2018-08-18T03:11:37.022Z,96.61
2018-08-18T03:12:36.932Z,96.22
2018-08-18T03:13:36.840Z,95.94
2018-08-18T03:14:36.769Z,95.79
2018-08-18T03:15:36.660Z,95.94
2018-08-18T03:16:36.569Z,95.36
2018-08-18T03:17:36.480Z,94.40
2018-08-18T03:18:36.396Z,93.35
2018-08-18T03:19:36.325Z,92.68
2018-08-18T03:20:36.213Z,90.81
2018-08-18T03:21:36.126Z,90.09
2018-08-18T03:22:36.036Z,88.94
2018-08-18T03:23:35.945Z,88.13
2018-08-18T03:24:35.869Z,87.08
2018-08-18T03:25:35.766Z,86.79
2018-08-18T03:26:35.674Z,85.83
2018-08-18T03:27:35.583Z,85.54
2018-08-18T03:28:35.496Z,84.97
2018-08-18T03:29:35.423Z,84.30
2018-08-18T03:30:35.317Z,83.44
2018-08-18T03:31:35.231Z,82.29
2018-08-18T03:32:35.154Z,81.81
2018-08-18T03:33:35.048Z,81.04
2018-08-18T03:34:34.973Z,80.08
2018-08-18T03:35:34.869Z,79.60
2018-08-18T03:36:34.775Z,78.55
2018-08-18T03:37:34.687Z,77.50
2018-08-18T03:38:34.599Z,76.15
2018-08-18T03:39:34.521Z,75.87
2018-08-18T03:40:34.418Z,75.58
2018-08-18T03:41:34.328Z,74.72
2018-08-18T03:42:34.235Z,74.15
2018-08-18T03:43:34.149Z,73.57
2018-08-18T03:44:34.074Z,72.99
2018-08-18T03:45:33.968Z,72.42
2018-08-18T03:46:33.885Z,71.66
2018-08-18T03:47:33.792Z,71.94
2018-08-18T03:48:33.700Z,71.08
2018-08-18T03:49:33.625Z,70.60
2018-08-18T03:50:33.516Z,70.60
2018-08-18T03:51:33.430Z,70.31
2018-08-18T03:52:33.423Z,70.15
2018-08-18T03:53:33.273Z,69.77
2018-08-18T03:54:33.176Z,69.87
2018-08-18T03:55:33.072Z,69.45
2018-08-18T03:56:32.983Z,69.58
2018-08-18T03:57:32.896Z,69.58
2018-08-18T03:58:32.800Z,69.77
2018-08-18T03:59:32.727Z,69.54
2018-08-18T04:00:32.619Z,69.01
2018-08-18T04:01:32.588Z,68.78
2018-08-18T04:02:32.441Z,69.17
2018-08-18T04:03:32.351Z,68.62
2018-08-18T04:04:32.276Z,68.62
2018-08-18T04:05:32.174Z,68.52
2018-08-18T04:06:32.080Z,68.62
2018-08-18T04:07:31.990Z,68.72
2018-08-18T04:08:32.001Z,68.81
2018-08-18T04:09:31.819Z,68.81
2018-08-18T04:10:31.741Z,68.62
2018-08-18T04:11:31.627Z,68.81
2018-08-18T04:12:31.540Z,68.62
2018-08-18T04:13:31.455Z,68.43
2018-08-18T04:14:31.376Z,68.72
2018-08-18T04:15:31.394Z,68.52
2018-08-18T04:16:31.183Z,68.52
2018-08-18T04:17:31.092Z,68.52
2018-08-18T04:18:31.002Z,68.72
2018-08-18T04:19:30.916Z,68.52
2018-08-18T04:20:30.839Z,69.01
2018-08-18T04:21:30.732Z,69.10
2018-08-18T04:22:30.744Z,68.81
2018-08-18T04:23:30.556Z,68.81
2018-08-18T04:24:30.467Z,68.72
2018-08-18T04:25:30.406Z,69.01
2018-08-18T04:26:30.283Z,69.29
2018-08-18T04:27:30.194Z,69.10
2018-08-18T04:28:30.104Z,69.39
2018-08-18T04:29:30.123Z,69.01
2018-08-18T04:30:29.939Z,68.91
2018-08-18T04:31:29.838Z,69.29
2018-08-18T04:32:29.748Z,69.10
2018-08-18T04:33:29.660Z,69.20
2018-08-18T04:34:29.568Z,69.20
2018-08-18T04:35:29.507Z,68.91
2018-08-18T04:36:29.510Z,68.91
2018-08-18T04:37:29.299Z,68.72
2018-08-18T04:38:29.209Z,68.91
2018-08-18T04:39:29.116Z,69.58
2018-08-18T04:40:29.048Z,69.77
2018-08-18T04:41:28.939Z,68.95
2018-08-18T04:42:28.851Z,69.39
2018-08-18T04:43:28.861Z,69.33
2018-08-18T04:44:28.668Z,69.52
2018-08-18T04:45:28.600Z,69.48
2018-08-18T04:46:28.491Z,69.71
2018-08-18T04:47:28.403Z,70.06
2018-08-18T04:48:28.310Z,69.87
2018-08-18T04:49:28.231Z,69.87
2018-08-18T04:50:28.280Z,70.06
2018-08-18T04:51:28.044Z,70.25
2018-08-18T04:52:27.953Z,69.81
2018-08-18T04:53:27.863Z,70.09
2018-08-18T04:54:27.773Z,70.35
2018-08-18T04:55:27.701Z,70.09
2018-08-18T04:56:27.594Z,70.09
2018-08-18T04:57:27.624Z,70.09
2018-08-18T04:58:27.416Z,70.19
2018-08-18T04:59:27.396Z,70.48
2018-08-18T05:00:27.252Z,70.48
2018-08-18T05:01:27.148Z,71.15
2018-08-18T05:02:27.055Z,70.67
2018-08-18T05:03:26.978Z,71.15
2018-08-18T05:04:26.977Z,71.44
2018-08-18T05:05:26.805Z,71.34
2018-08-18T05:06:26.699Z,72.11
2018-08-18T05:07:26.607Z,71.82
2018-08-18T05:08:26.521Z,71.72
2018-08-18T05:09:26.432Z,72.20
2018-08-18T05:10:26.355Z,72.39
2018-08-18T05:11:26.348Z,72.78
2018-08-18T05:12:26.161Z,72.68
2018-08-18T05:13:26.070Z,72.88
2018-08-18T05:14:25.987Z,73.16
2018-08-18T05:15:25.906Z,73.16
2018-08-18T05:16:25.804Z,73.35
2018-08-18T05:17:25.716Z,73.93
2018-08-18T05:18:25.622Z,74.41
2018-08-18T05:19:25.641Z,74.69
2018-08-18T05:20:25.462Z,74.69
2018-08-18T05:21:25.356Z,75.27
2018-08-18T05:22:25.264Z,75.46
2018-08-18T05:23:25.175Z,75.95
2018-08-18T05:24:25.092Z,76.71
2018-08-18T05:25:25.114Z,75.98
2018-08-18T05:26:24.908Z,76.46
2018-08-18T05:27:24.814Z,77.13
2018-08-18T05:28:24.727Z,77.71
2018-08-18T05:29:24.640Z,78.00
2018-08-18T05:30:24.566Z,79.14
2018-08-18T05:31:24.462Z,79.44
2018-08-18T05:32:24.474Z,79.53
2018-08-18T05:33:24.284Z,80.49
2018-08-18T05:34:24.199Z,80.49
2018-08-18T05:35:24.120Z,80.58
2018-08-18T05:36:24.037Z,81.54
2018-08-18T05:37:23.929Z,82.12
2018-08-18T05:38:23.835Z,82.21
2018-08-18T05:39:23.747Z,82.51
2018-08-18T05:40:23.675Z,82.98
2018-08-18T05:41:23.568Z,83.08
2018-08-18T05:42:23.482Z,83.27
2018-08-18T05:43:23.392Z,83.65
2018-08-18T05:44:23.304Z,83.37
2018-08-18T05:45:23.230Z,84.04
2018-08-18T05:46:23.122Z,84.23
2018-08-18T05:47:23.042Z,84.33
2018-08-18T05:48:22.944Z,84.42
2018-08-18T05:49:22.854Z,84.91
2018-08-18T05:50:22.801Z,84.71
2018-08-18T05:51:22.676Z,84.14
2018-08-18T05:52:22.591Z,84.71
2018-08-18T05:53:22.502Z,84.71
2018-08-18T05:54:22.411Z,84.42
2018-08-18T05:55:22.321Z,84.23
2018-08-18T05:56:22.249Z,84.42
2018-08-18T05:57:22.145Z,84.81
2018-08-18T05:58:22.056Z,84.61
2018-08-18T05:59:21.964Z,84.81
2018-08-18T06:00:21.878Z,84.91
2018-08-18T06:01:21.802Z,84.42
2018-08-18T06:02:21.698Z,84.71
2018-08-18T06:03:21.611Z,84.91
2018-08-18T06:04:21.522Z,85.28
2018-08-18T06:05:21.434Z,85.00
2018-08-18T06:06:21.359Z,85.86
2018-08-18T06:07:21.255Z,86.00
2018-08-18T06:08:21.163Z,87.35
2018-08-18T06:09:21.075Z,88.49
2018-08-18T06:10:20.994Z,89.75
2018-08-18T06:11:20.916Z,89.46
2018-08-18T06:12:20.810Z,90.70
2018-08-18T06:13:20.720Z,91.76
2018-08-18T06:14:20.630Z,92.82
2018-08-18T06:15:20.544Z,92.43
2018-08-18T06:16:20.468Z,93.49
2018-08-18T06:17:20.369Z,96.61
2018-08-18T06:18:20.279Z,96.99
2018-08-18T06:19:20.187Z,98.24
2018-08-18T06:20:20.103Z,98.24
2018-08-18T06:21:20.029Z,99.20
2018-08-18T06:22:19.922Z,99.99
2018-08-18T06:23:19.833Z,99.99
2018-08-18T06:24:19.745Z,99.99
2018-08-18T06:25:19.658Z,99.99
2018-08-18T06:26:19.637Z,99.99
2018-08-18T06:27:19.481Z,99.99
2018-08-18T06:28:19.393Z,99.99
2018-08-18T06:29:19.304Z,99.99
2018-08-18T06:30:19.213Z,99.99
2018-08-18T06:31:19.144Z,99.99
2018-08-18T06:32:19.040Z,99.99
2018-08-18T06:33:18.950Z,99.99
2018-08-18T06:34:18.861Z,99.99
2018-08-18T06:35:18.778Z,99.99
2018-08-18T06:36:18.702Z,99.99
2018-08-18T06:37:18.598Z,99.99
2018-08-18T06:38:18.509Z,99.99
2018-08-18T06:39:18.425Z,99.99
2018-08-18T06:40:18.334Z,99.99
2018-08-18T06:41:18.269Z,99.99
2018-08-18T06:42:18.155Z,99.99
2018-08-18T06:43:18.085Z,99.99
2018-08-18T06:44:17.982Z,99.99
2018-08-18T06:45:17.893Z,99.99
2018-08-18T06:46:17.821Z,99.99
2018-08-18T06:47:17.718Z,99.99
2018-08-18T06:48:17.628Z,99.99
2018-08-18T06:49:17.543Z,99.99
2018-08-18T06:50:17.455Z,99.99
2018-08-18T06:51:17.384Z,99.99
2018-08-18T06:52:17.278Z,99.99
2018-08-18T06:53:17.191Z,99.99
2018-08-18T06:54:17.146Z,99.99
2018-08-18T06:55:17.161Z,99.99
2018-08-18T06:56:16.949Z,99.99
2018-08-18T06:57:16.847Z,99.99
2018-08-18T06:58:16.756Z,99.99
2018-08-18T06:59:16.671Z,99.99
2018-08-18T07:00:16.590Z,99.99
2018-08-18T07:01:16.516Z,99.99
2018-08-18T07:02:16.412Z,99.99
2018-08-18T07:03:16.327Z,99.99
2018-08-18T07:04:16.251Z,99.99
2018-08-18T07:05:16.157Z,99.99
2018-08-18T07:06:16.083Z,99.99
2018-08-18T07:07:15.981Z,99.99
2018-08-18T07:08:15.900Z,99.99
2018-08-18T07:09:15.911Z,99.99
2018-08-18T07:10:15.724Z,99.99
2018-08-18T07:11:15.658Z,99.99
2018-08-18T07:12:15.550Z,99.99
2018-08-18T07:13:15.467Z,99.99
2018-08-18T07:14:15.379Z,99.99
2018-08-18T07:15:15.287Z,99.99
2018-08-18T07:16:15.307Z,99.99
2018-08-18T07:17:15.117Z,99.99
2018-08-18T07:18:15.032Z,99.99
2018-08-18T07:19:14.948Z,99.99
2018-08-18T07:20:14.859Z,99.99
2018-08-18T07:21:14.794Z,99.99
2018-08-18T07:22:14.693Z,99.99
2018-08-18T07:23:14.703Z,99.99
2018-08-18T07:24:14.517Z,99.99
2018-08-18T07:25:14.431Z,99.99
2018-08-18T07:26:14.362Z,99.99
2018-08-18T07:27:14.256Z,99.99
2018-08-18T07:28:14.240Z,99.99
2018-08-18T07:29:14.088Z,99.99
2018-08-18T07:30:14.107Z,99.99
2018-08-18T07:31:13.937Z,99.99
2018-08-18T07:32:13.836Z,99.99
2018-08-18T07:33:13.747Z,99.99
2018-08-18T07:34:13.660Z,99.99
2018-08-18T07:35:13.576Z,99.99
2018-08-18T07:36:13.507Z,99.99
2018-08-18T07:37:13.650Z,99.99
2018-08-18T07:38:13.321Z,99.99
2018-08-18T07:39:13.236Z,99.99
2018-08-18T07:40:13.153Z,99.99
2018-08-18T07:41:13.075Z,99.99
2018-08-18T07:42:13.004Z,99.99
2018-08-18T07:43:12.898Z,99.99
2018-08-18T07:44:12.913Z,99.99
2018-08-18T07:45:12.733Z,99.99
2018-08-18T07:46:12.670Z,98.83
2018-08-18T07:47:12.581Z,99.02
2018-08-18T07:48:12.561Z,98.15
2018-08-18T07:49:12.398Z,97.47
2018-08-18T07:50:12.313Z,97.33
2018-08-18T07:51:12.334Z,96.55
2018-08-18T07:52:12.160Z,98.00
2018-08-18T07:53:12.091Z,97.42
2018-08-18T07:54:11.976Z,97.04
2018-08-18T07:55:11.894Z,96.07
2018-08-18T07:56:11.813Z,96.46
2018-08-18T07:57:11.745Z,96.70
2018-08-18T07:58:11.745Z,96.80
2018-08-18T07:59:11.564Z,95.64
2018-08-18T08:00:11.502Z,95.00
2018-08-18T08:01:11.399Z,94.71
2018-08-18T08:02:11.332Z,93.99
2018-08-18T08:03:11.235Z,94.57
2018-08-18T08:04:11.149Z,94.57
2018-08-18T08:05:11.097Z,96.17
2018-08-18T08:06:10.987Z,95.10
2018-08-18T08:07:10.923Z,93.65
2018-08-18T08:08:10.825Z,95.10
2018-08-18T08:09:10.737Z,94.52
2018-08-18T08:10:10.657Z,94.57
2018-08-18T08:11:10.575Z,95.05
2018-08-18T08:12:10.509Z,93.94
2018-08-18T08:13:10.428Z,93.79
2018-08-18T08:14:10.328Z,92.58
2018-08-18T08:15:10.247Z,91.71
2018-08-18T08:16:10.166Z,92.19
2018-08-18T08:17:10.102Z,92.58
2018-08-18T08:18:10.059Z,91.22
2018-08-18T08:19:09.919Z,90.44
2018-08-18T08:20:09.840Z,88.84
2018-08-18T08:21:09.761Z,89.37
2018-08-18T08:22:09.693Z,90.78
2018-08-18T08:23:09.618Z,88.98
2018-08-18T08:24:09.514Z,89.03
2018-08-18T08:25:09.565Z,88.65
2018-08-18T08:26:09.353Z,88.59
2018-08-18T08:27:09.291Z,88.20
2018-08-18T08:28:09.188Z,87.96
2018-08-18T08:29:09.110Z,87.23
2018-08-18T08:30:09.030Z,86.94
2018-08-18T08:31:08.948Z,88.10
2018-08-18T08:32:08.882Z,88.65
2018-08-18T08:33:08.789Z,87.87
2018-08-18T08:34:08.712Z,89.09
2018-08-18T08:35:08.632Z,88.79
2018-08-18T08:36:08.546Z,87.63
2018-08-18T08:37:08.483Z,90.78
2018-08-18T08:38:08.387Z,90.58
2018-08-18T08:39:08.417Z,88.84
2018-08-18T08:40:08.223Z,86.85
2018-08-18T08:41:08.143Z,87.87
2018-08-18T08:42:08.078Z,87.63
2018-08-18T08:43:07.991Z,89.07
2018-08-18T08:44:07.900Z,88.15
2018-08-18T08:45:07.821Z,86.89
2018-08-18T08:46:07.859Z,88.10
2018-08-18T08:47:07.675Z,84.45
2018-08-18T08:48:07.580Z,83.71
2018-08-18T08:49:07.508Z,82.39
2018-08-18T08:50:07.417Z,80.87
2018-08-18T08:51:07.342Z,79.10
2018-08-18T08:52:07.278Z,78.48
2018-08-18T08:53:07.182Z,80.93
2018-08-18T08:54:07.102Z,82.00
2018-08-18T08:55:07.024Z,81.32
2018-08-18T08:56:06.945Z,82.29
2018-08-18T08:57:06.881Z,83.31
2018-08-18T08:58:06.786Z,81.20
2018-08-18T08:59:06.701Z,81.07
2018-08-18T09:00:06.623Z,80.68
2018-08-18T09:01:06.545Z,81.12
2018-08-18T09:02:06.482Z,81.22
2018-08-18T09:03:06.386Z,82.06
2018-08-18T09:04:06.307Z,83.28
2018-08-18T09:05:06.226Z,82.60
2018-08-18T09:06:06.249Z,83.78
2018-08-18T09:07:06.090Z,85.29
2018-08-18T09:08:05.989Z,86.80
2018-08-18T09:09:05.913Z,87.38
2018-08-18T09:10:05.829Z,87.09
2018-08-18T09:11:05.752Z,89.23
2018-08-18T09:12:05.690Z,87.04
2018-08-18T09:13:05.697Z,87.32
2018-08-18T09:14:05.512Z,86.21
2018-08-18T09:15:05.432Z,83.86
2018-08-18T09:16:05.354Z,84.93
2018-08-18T09:17:05.279Z,83.96
2018-08-18T09:18:05.211Z,83.76
2018-08-18T09:19:05.115Z,83.22
2018-08-18T09:20:05.036Z,83.09
2018-08-18T09:21:04.956Z,83.34
2018-08-18T09:22:04.908Z,83.57
2018-08-18T09:23:04.800Z,82.07
2018-08-18T09:24:04.719Z,81.53
2018-08-18T09:25:04.637Z,80.66
2018-08-18T09:26:04.640Z,81.24
2018-08-18T09:27:04.499Z,82.50
2018-08-18T09:28:04.401Z,80.21
2018-08-18T09:29:04.326Z,80.60
2018-08-18T09:30:04.242Z,81.02
2018-08-18T09:31:04.165Z,80.35
2018-08-18T09:32:04.084Z,78.73
2018-08-18T09:33:04.138Z,78.79
2018-08-18T09:34:03.924Z,78.92
2018-08-18T09:35:03.847Z,77.70
2018-08-18T09:36:03.769Z,77.66
2018-08-18T09:37:03.691Z,79.32
2018-08-18T09:38:03.628Z,78.59
2018-08-18T09:39:03.534Z,78.79
2018-08-18T09:40:03.550Z,78.20
2018-08-18T09:41:03.380Z,77.82
2018-08-18T09:42:03.300Z,78.66
2018-08-18T09:43:03.232Z,80.05
2018-08-18T09:44:03.136Z,82.02
2018-08-18T09:45:03.067Z,82.07
2018-08-18T09:46:02.978Z,82.71
2018-08-18T09:47:03.006Z,83.97
2018-08-18T09:48:02.841Z,83.94
2018-08-18T09:49:02.745Z,85.93
2018-08-18T09:50:02.665Z,86.51
2018-08-18T09:51:02.583Z,85.93
2018-08-18T09:52:02.504Z,87.68
2018-08-18T09:53:02.450Z,88.89
2018-08-18T09:54:02.440Z,88.37
2018-08-18T09:55:02.266Z,88.02
2018-08-18T09:56:02.188Z,88.79
2018-08-18T09:57:02.118Z,87.59
2018-08-18T09:58:02.039Z,88.99
2018-08-18T09:59:01.944Z,88.27
2018-08-18T10:00:01.863Z,87.63
2018-08-18T10:01:01.883Z,87.05
2018-08-18T10:02:01.703Z,87.24
2018-08-18T10:03:01.641Z,87.58
2018-08-18T10:04:01.546Z,86.32
2018-08-18T10:05:01.463Z,86.47
2018-08-18T10:06:01.381Z,87.34
2018-08-18T10:07:01.302Z,88.51
2018-08-18T10:08:01.354Z,89.53
2018-08-18T10:09:01.138Z,89.62
2018-08-18T10:10:01.058Z,90.26
2018-08-18T10:11:00.980Z,91.03
2018-08-18T10:12:00.897Z,91.32
2018-08-18T10:13:00.831Z,90.94
2018-08-18T10:14:00.734Z,90.84
2018-08-18T10:15:00.753Z,92.10
2018-08-18T10:16:00.573Z,90.74
2018-08-18T10:17:00.489Z,90.64
2018-08-18T10:18:00.425Z,91.61
2018-08-18T10:19:00.339Z,91.08
2018-08-18T10:20:00.251Z,89.72
2018-08-18T10:21:00.165Z,90.20
2018-08-18T10:22:00.088Z,88.60
2018-08-18T10:23:00.015Z,88.93
2018-08-18T10:23:59.919Z,88.74
2018-08-18T10:24:59.836Z,89.71
2018-08-18T10:25:59.760Z,88.06
2018-08-18T10:26:59.672Z,88.84
2018-08-18T10:27:59.608Z,88.20
2018-08-18T10:28:59.509Z,87.12
2018-08-18T10:29:59.431Z,84.55
2018-08-18T10:30:59.346Z,83.51
2018-08-18T10:31:59.264Z,81.94
2018-08-18T10:32:59.199Z,79.80
2018-08-18T10:33:59.101Z,82.00
2018-08-18T10:34:59.021Z,81.26
2018-08-18T10:35:58.938Z,80.68
2018-08-18T10:36:58.863Z,79.25
2018-08-18T10:37:58.794Z,78.52
2018-08-18T10:38:58.694Z,76.21
2018-08-18T10:39:58.618Z,77.23
2018-08-18T10:40:58.539Z,77.40
2018-08-18T10:41:58.496Z,77.76
2018-08-18T10:42:58.393Z,78.75
2018-08-18T10:43:58.294Z,80.66
2018-08-18T10:44:58.214Z,83.20
2018-08-18T10:45:58.137Z,83.59
2018-08-18T10:46:58.056Z,83.49
2018-08-18T10:47:57.996Z,84.99
2018-08-18T10:48:57.894Z,84.07
2018-08-18T10:49:57.820Z,83.67
2018-08-18T10:50:57.737Z,83.04
2018-08-18T10:51:57.652Z,80.94
2018-08-18T10:52:57.589Z,80.56
2018-08-18T10:53:57.492Z,81.57
2018-08-18T10:54:57.413Z,80.93
2018-08-18T10:55:57.332Z,82.35
2018-08-18T10:56:57.252Z,82.64
2018-08-18T10:57:57.190Z,82.89
2018-08-18T10:58:57.092Z,83.22
2018-08-18T10:59:57.011Z,81.41
2018-08-18T11:00:56.930Z,80.74
2018-08-18T11:01:56.851Z,78.34
2018-08-18T11:02:56.791Z,78.28
2018-08-18T11:03:56.820Z,77.99
2018-08-18T11:04:56.623Z,76.96
2018-08-18T11:05:56.530Z,76.31
2018-08-18T11:06:56.451Z,74.69
2018-08-18T11:07:56.393Z,75.01
2018-08-18T11:08:56.333Z,75.98
2018-08-18T11:09:56.211Z,77.70
2018-08-18T11:10:56.131Z,75.69
2018-08-18T11:11:56.152Z,77.99
2018-08-18T11:12:55.990Z,76.34
2018-08-18T11:13:55.895Z,77.91
2018-08-18T11:14:55.816Z,77.82
2018-08-18T11:15:55.735Z,77.62
2018-08-18T11:16:55.658Z,78.66
2018-08-18T11:17:55.578Z,79.72
2018-08-18T11:18:55.519Z,80.62
2018-08-18T11:19:55.419Z,81.84
2018-08-18T11:20:55.341Z,82.37
2018-08-18T11:21:55.297Z,82.60
2018-08-18T11:22:55.182Z,80.15
2018-08-18T11:23:55.118Z,79.76
2018-08-18T11:24:55.022Z,80.89
2018-08-18T11:25:54.944Z,81.28
2018-08-18T11:26:54.864Z,81.34
2018-08-18T11:27:54.786Z,82.11
2018-08-18T11:28:54.730Z,79.57
2018-08-18T11:29:54.623Z,78.44
2018-08-18T11:30:54.544Z,76.28
2018-08-18T11:31:54.466Z,77.37
2018-08-18T11:32:54.386Z,79.18
2018-08-18T11:33:54.322Z,79.47
2018-08-18T11:34:54.229Z,80.46
2018-08-18T11:35:54.144Z,80.66
2018-08-18T11:36:54.069Z,80.83
2018-08-18T11:37:54.092Z,78.92
2018-08-18T11:38:53.923Z,78.67
2018-08-18T11:39:53.828Z,78.53
2018-08-18T11:40:53.751Z,78.94
2018-08-18T11:41:53.665Z,80.79
2018-08-18T11:42:53.587Z,79.97
2018-08-18T11:43:53.624Z,79.53
2018-08-18T11:44:53.429Z,78.11
2018-08-18T11:45:53.349Z,78.15
2018-08-18T11:46:53.328Z,76.14
2018-08-18T11:47:53.189Z,75.07
2018-08-18T11:48:53.124Z,75.07
2018-08-18T11:49:53.027Z,75.14
2018-08-18T11:50:53.051Z,72.41
2018-08-18T11:51:52.869Z,73.43
2018-08-18T11:52:52.791Z,73.62
2018-08-18T11:53:52.729Z,71.80
2018-08-18T11:54:52.632Z,73.17
2018-08-18T11:55:52.551Z,72.39
2018-08-18T11:56:52.473Z,69.69
2018-08-18T11:57:52.493Z,71.55
2018-08-18T11:58:52.331Z,71.00
2018-08-18T11:59:52.239Z,68.75
2018-08-18T12:00:52.155Z,67.51
2018-08-18T12:01:52.131Z,67.74
2018-08-18T12:02:52.000Z,68.39
2018-08-18T12:03:51.945Z,70.21
2018-08-18T12:04:51.841Z,69.82
2018-08-18T12:05:51.764Z,68.52
2018-08-18T12:06:51.686Z,68.97
2018-08-18T12:07:51.607Z,69.56
2018-08-18T12:08:51.546Z,68.39
2018-08-18T12:09:51.449Z,68.49
2018-08-18T12:10:51.567Z,69.36
2018-08-18T12:11:51.296Z,68.49
2018-08-18T12:12:51.217Z,67.83
2018-08-18T12:13:51.158Z,67.12
2018-08-18T12:14:51.058Z,67.41
2018-08-18T12:15:50.993Z,67.25
2018-08-18T12:16:50.906Z,65.56
2018-08-18T12:17:50.943Z,67.44
2018-08-18T12:18:50.763Z,68.23
2018-08-18T12:19:50.670Z,70.59
2018-08-18T12:20:50.590Z,71.66
2018-08-18T12:21:50.516Z,70.23
2018-08-18T12:22:50.435Z,70.10
2018-08-18T12:23:50.378Z,67.80
2018-08-18T12:24:50.383Z,67.15
2018-08-18T12:25:50.199Z,66.63
2018-08-18T12:26:50.119Z,65.33
2018-08-18T12:27:50.044Z,66.11
2018-08-18T12:28:49.981Z,64.42
2018-08-18T12:29:50.000Z,64.03
2018-08-18T12:30:49.810Z,65.56
2018-08-18T12:31:49.729Z,65.56
2018-08-18T12:32:49.652Z,66.79
2018-08-18T12:33:49.591Z,67.77
2018-08-18T12:34:49.493Z,67.38
2018-08-18T12:35:49.415Z,66.24
2018-08-18T12:36:49.431Z,64.00
2018-08-18T12:37:49.261Z,64.42
2018-08-18T12:38:49.212Z,65.46
2018-08-18T12:39:49.104Z,63.83
2018-08-18T12:40:49.029Z,64.22
2018-08-18T12:41:48.946Z,63.28
2018-08-18T12:42:48.870Z,63.09
2018-08-18T12:43:48.809Z,62.50
2018-08-18T12:44:48.817Z,61.04
2018-08-18T12:45:48.635Z,60.13
2018-08-18T12:46:48.557Z,61.72
2018-08-18T12:47:48.479Z,61.91
2018-08-18T12:48:48.419Z,60.45
2018-08-18T12:49:48.408Z,60.16
2018-08-18T12:50:48.246Z,61.52
2018-08-18T12:51:48.270Z,60.45